sensor_id;sensor_type;location;lat;lon;timestamp;temperature;humidity
27567;DHT22;15006;48.584;9.186;2024-03-02T00:01:11;2.40;92.90
27567;DHT22;15006;48.584;9.186;2024-03-02T00:03:37;2.40;93.10
27567;DHT22;15006;48.584;9.186;2024-03-02T00:06:04;2.30;93.10
27567;DHT22;15006;48.584;9.186;2024-03-02T00:08:30;2.30;93.20
27567;DHT22;15006;48.584;9.186;2024-03-02T00:10:58;2.30;93.40
27567;DHT22;15006;48.584;9.186;2024-03-02T00:13:24;2.30;93.70
27567;DHT22;15006;48.584;9.186;2024-03-02T00:15:55;2.30;93.80
27567;DHT22;15006;48.584;9.186;2024-03-02T00:18:26;2.30;93.90
27567;DHT22;15006;48.584;9.186;2024-03-02T00:20:56;2.30;93.90
27567;DHT22;15006;48.584;9.186;2024-03-02T00:23:24;2.20;93.80
27567;DHT22;15006;48.584;9.186;2024-03-02T00:25:54;2.20;94.00
27567;DHT22;15006;48.584;9.186;2024-03-02T00:28:24;2.20;94.00
27567;DHT22;15006;48.584;9.186;2024-03-02T00:31:11;2.20;94.00
27567;DHT22;15006;48.584;9.186;2024-03-02T00:36:29;2.20;93.90
27567;DHT22;15006;48.584;9.186;2024-03-02T00:38:55;2.20;94.10
27567;DHT22;15006;48.584;9.186;2024-03-02T00:41:27;2.20;94.20
27567;DHT22;15006;48.584;9.186;2024-03-02T00:44:04;2.20;94.20
27567;DHT22;15006;48.584;9.186;2024-03-02T00:46:40;2.20;94.20
27567;DHT22;15006;48.584;9.186;2024-03-02T00:49:24;2.20;94.20
27567;DHT22;15006;48.584;9.186;2024-03-02T00:51:52;2.10;94.20
27567;DHT22;15006;48.584;9.186;2024-03-02T00:54:23;2.10;93.90
27567;DHT22;15006;48.584;9.186;2024-03-02T00:56:52;2.10;94.00
27567;DHT22;15006;48.584;9.186;2024-03-02T00:59:21;2.10;94.00
27567;DHT22;15006;48.584;9.186;2024-03-02T01:01:48;2.10;94.30
27567;DHT22;15006;48.584;9.186;2024-03-02T01:04:15;2.10;94.30
27567;DHT22;15006;48.584;9.186;2024-03-02T01:06:44;2.00;94.10
27567;DHT22;15006;48.584;9.186;2024-03-02T01:09:11;2.10;94.10
27567;DHT22;15006;48.584;9.186;2024-03-02T01:11:38;2.00;93.90
27567;DHT22;15006;48.584;9.186;2024-03-02T01:14:04;2.00;93.90
27567;DHT22;15006;48.584;9.186;2024-03-02T01:16:30;1.90;93.90
27567;DHT22;15006;48.584;9.186;2024-03-02T01:18:56;1.90;94.00
27567;DHT22;15006;48.584;9.186;2024-03-02T01:21:21;1.90;94.10
27567;DHT22;15006;48.584;9.186;2024-03-02T01:23:47;1.80;94.40
27567;DHT22;15006;48.584;9.186;2024-03-02T01:26:14;1.80;94.60
27567;DHT22;15006;48.584;9.186;2024-03-02T01:28:39;1.80;94.60
27567;DHT22;15006;48.584;9.186;2024-03-02T01:31:05;1.80;94.60
27567;DHT22;15006;48.584;9.186;2024-03-02T01:33:31;1.80;94.60
27567;DHT22;15006;48.584;9.186;2024-03-02T01:35:57;1.80;94.50
27567;DHT22;15006;48.584;9.186;2024-03-02T01:38:23;1.80;94.20
27567;DHT22;15006;48.584;9.186;2024-03-02T01:40:49;1.80;94.00
27567;DHT22;15006;48.584;9.186;2024-03-02T01:43:15;1.70;93.80
27567;DHT22;15006;48.584;9.186;2024-03-02T01:45:41;1.70;93.70
27567;DHT22;15006;48.584;9.186;2024-03-02T01:48:07;1.70;93.60
27567;DHT22;15006;48.584;9.186;2024-03-02T01:50:34;1.60;93.50
27567;DHT22;15006;48.584;9.186;2024-03-02T01:53:01;1.60;93.20
27567;DHT22;15006;48.584;9.186;2024-03-02T01:55:30;1.50;92.90
27567;DHT22;15006;48.584;9.186;2024-03-02T01:57:56;1.40;92.70
27567;DHT22;15006;48.584;9.186;2024-03-02T02:00:22;1.40;92.50
27567;DHT22;15006;48.584;9.186;2024-03-02T02:02:51;1.30;92.50
27567;DHT22;15006;48.584;9.186;2024-03-02T02:05:17;1.30;92.90
27567;DHT22;15006;48.584;9.186;2024-03-02T02:07:44;1.20;93.00
27567;DHT22;15006;48.584;9.186;2024-03-02T02:10:10;1.10;93.00
27567;DHT22;15006;48.584;9.186;2024-03-02T02:12:37;1.00;92.90
27567;DHT22;15006;48.584;9.186;2024-03-02T02:15:04;0.90;92.80
27567;DHT22;15006;48.584;9.186;2024-03-02T02:17:47;0.90;92.80
27567;DHT22;15006;48.584;9.186;2024-03-02T02:20:13;0.80;92.90
27567;DHT22;15006;48.584;9.186;2024-03-02T02:22:39;0.70;93.00
27567;DHT22;15006;48.584;9.186;2024-03-02T02:25:05;0.60;93.10
27567;DHT22;15006;48.584;9.186;2024-03-02T02:27:31;0.60;93.30
27567;DHT22;15006;48.584;9.186;2024-03-02T02:29:57;0.60;93.50
27567;DHT22;15006;48.584;9.186;2024-03-02T02:32:23;0.50;93.50
27567;DHT22;15006;48.584;9.186;2024-03-02T02:34:52;0.40;93.50
27567;DHT22;15006;48.584;9.186;2024-03-02T02:37:18;0.40;93.60
27567;DHT22;15006;48.584;9.186;2024-03-02T02:39:44;0.30;93.50
27567;DHT22;15006;48.584;9.186;2024-03-02T02:42:12;0.30;93.70
27567;DHT22;15006;48.584;9.186;2024-03-02T02:44:38;0.20;93.70
27567;DHT22;15006;48.584;9.186;2024-03-02T02:47:04;0.20;94.10
27567;DHT22;15006;48.584;9.186;2024-03-02T02:49:31;0.20;94.40
27567;DHT22;15006;48.584;9.186;2024-03-02T02:51:57;0.20;94.80
27567;DHT22;15006;48.584;9.186;2024-03-02T02:54:22;0.20;94.90
27567;DHT22;15006;48.584;9.186;2024-03-02T02:56:48;0.10;95.00
27567;DHT22;15006;48.584;9.186;2024-03-02T02:59:14;0.10;95.00
27567;DHT22;15006;48.584;9.186;2024-03-02T03:01:40;0.10;95.00
27567;DHT22;15006;48.584;9.186;2024-03-02T03:04:06;0.10;95.10
27567;DHT22;15006;48.584;9.186;2024-03-02T03:06:32;0.10;95.30
27567;DHT22;15006;48.584;9.186;2024-03-02T03:08:58;0.10;95.30
27567;DHT22;15006;48.584;9.186;2024-03-02T03:11:24;0.00;95.20
27567;DHT22;15006;48.584;9.186;2024-03-02T03:13:52;0.00;95.20
27567;DHT22;15006;48.584;9.186;2024-03-02T03:16:20;0.00;95.10
27567;DHT22;15006;48.584;9.186;2024-03-02T03:18:45;-0.10;94.90
27567;DHT22;15006;48.584;9.186;2024-03-02T03:21:11;-0.10;94.60
27567;DHT22;15006;48.584;9.186;2024-03-02T03:23:37;-0.10;94.50
27567;DHT22;15006;48.584;9.186;2024-03-02T03:26:03;-0.20;94.30
27567;DHT22;15006;48.584;9.186;2024-03-02T03:28:30;-0.20;94.20
27567;DHT22;15006;48.584;9.186;2024-03-02T03:30:55;-0.30;94.20
27567;DHT22;15006;48.584;9.186;2024-03-02T03:33:21;-0.30;94.30
27567;DHT22;15006;48.584;9.186;2024-03-02T03:35:47;-0.40;94.50
27567;DHT22;15006;48.584;9.186;2024-03-02T03:38:13;-0.40;95.00
27567;DHT22;15006;48.584;9.186;2024-03-02T03:40:39;-0.40;94.90
27567;DHT22;15006;48.584;9.186;2024-03-02T03:43:05;-0.40;95.00
27567;DHT22;15006;48.584;9.186;2024-03-02T03:45:31;-0.50;95.20
27567;DHT22;15006;48.584;9.186;2024-03-02T03:47:57;-0.50;95.30
27567;DHT22;15006;48.584;9.186;2024-03-02T03:50:23;-0.50;95.40
27567;DHT22;15006;48.584;9.186;2024-03-02T03:52:49;-0.50;95.40
27567;DHT22;15006;48.584;9.186;2024-03-02T03:55:15;-0.60;95.40
27567;DHT22;15006;48.584;9.186;2024-03-02T03:57:41;-0.60;95.40
27567;DHT22;15006;48.584;9.186;2024-03-02T04:00:08;-0.60;95.30
27567;DHT22;15006;48.584;9.186;2024-03-02T04:02:36;-0.60;95.40
27567;DHT22;15006;48.584;9.186;2024-03-02T04:05:02;-0.70;95.30
27567;DHT22;15006;48.584;9.186;2024-03-02T04:07:30;-0.70;95.40
27567;DHT22;15006;48.584;9.186;2024-03-02T04:09:56;-0.70;95.30
27567;DHT22;15006;48.584;9.186;2024-03-02T04:12:22;-0.80;95.40
27567;DHT22;15006;48.584;9.186;2024-03-02T04:14:48;-0.80;95.70
27567;DHT22;15006;48.584;9.186;2024-03-02T04:17:14;-0.80;95.60
27567;DHT22;15006;48.584;9.186;2024-03-02T04:19:40;-0.80;95.40
27567;DHT22;15006;48.584;9.186;2024-03-02T04:22:06;-0.90;95.30
27567;DHT22;15006;48.584;9.186;2024-03-02T04:24:32;-0.90;95.20
27567;DHT22;15006;48.584;9.186;2024-03-02T04:26:57;-0.90;95.10
27567;DHT22;15006;48.584;9.186;2024-03-02T04:29:23;-1.00;95.10
27567;DHT22;15006;48.584;9.186;2024-03-02T04:31:49;-1.00;95.10
27567;DHT22;15006;48.584;9.186;2024-03-02T04:34:15;-1.00;95.30
27567;DHT22;15006;48.584;9.186;2024-03-02T04:36:41;-1.00;95.50
27567;DHT22;15006;48.584;9.186;2024-03-02T04:39:07;-1.10;95.60
27567;DHT22;15006;48.584;9.186;2024-03-02T04:41:35;-1.10;95.80
27567;DHT22;15006;48.584;9.186;2024-03-02T04:44:01;-1.10;96.00
27567;DHT22;15006;48.584;9.186;2024-03-02T04:46:27;-1.10;96.30
27567;DHT22;15006;48.584;9.186;2024-03-02T04:48:54;-1.10;96.30
27567;DHT22;15006;48.584;9.186;2024-03-02T04:51:22;-1.10;96.30
27567;DHT22;15006;48.584;9.186;2024-03-02T04:53:48;-1.10;96.40
27567;DHT22;15006;48.584;9.186;2024-03-02T04:56:14;-1.10;96.50
27567;DHT22;15006;48.584;9.186;2024-03-02T04:59:05;-1.10;96.50
27567;DHT22;15006;48.584;9.186;2024-03-02T05:01:32;-1.10;97.40
27567;DHT22;15006;48.584;9.186;2024-03-02T05:03:59;-1.10;96.30
27567;DHT22;15006;48.584;9.186;2024-03-02T05:06:25;-1.10;96.30
27567;DHT22;15006;48.584;9.186;2024-03-02T05:08:51;-1.20;96.20
27567;DHT22;15006;48.584;9.186;2024-03-02T05:11:16;-1.20;96.30
27567;DHT22;15006;48.584;9.186;2024-03-02T05:14:11;-1.20;96.50
27567;DHT22;15006;48.584;9.186;2024-03-02T05:16:37;-1.20;96.60
27567;DHT22;15006;48.584;9.186;2024-03-02T05:19:04;-1.20;96.80
27567;DHT22;15006;48.584;9.186;2024-03-02T05:21:32;-1.20;97.00
27567;DHT22;15006;48.584;9.186;2024-03-02T05:23:59;-1.20;96.90
27567;DHT22;15006;48.584;9.186;2024-03-02T05:26:25;-1.20;96.70
27567;DHT22;15006;48.584;9.186;2024-03-02T05:28:51;-1.20;96.50
27567;DHT22;15006;48.584;9.186;2024-03-02T05:31:17;-1.20;96.50
27567;DHT22;15006;48.584;9.186;2024-03-02T05:33:43;-1.20;96.40
27567;DHT22;15006;48.584;9.186;2024-03-02T05:36:09;-1.20;96.60
27567;DHT22;15006;48.584;9.186;2024-03-02T05:38:35;-1.20;97.30
27567;DHT22;15006;48.584;9.186;2024-03-02T05:41:01;-1.20;98.20
27567;DHT22;15006;48.584;9.186;2024-03-02T05:43:28;-1.10;98.70
27567;DHT22;15006;48.584;9.186;2024-03-02T05:45:54;-1.00;99.00
27567;DHT22;15006;48.584;9.186;2024-03-02T05:48:20;-1.00;99.20
27567;DHT22;15006;48.584;9.186;2024-03-02T05:50:46;-0.90;99.30
27567;DHT22;15006;48.584;9.186;2024-03-02T05:53:12;-0.80;99.70
27567;DHT22;15006;48.584;9.186;2024-03-02T05:55:38;-0.70;99.90
27567;DHT22;15006;48.584;9.186;2024-03-02T05:58:04;-0.60;99.60
27567;DHT22;15006;48.584;9.186;2024-03-02T06:00:48;-0.60;99.10
27567;DHT22;15006;48.584;9.186;2024-03-02T06:03:14;-0.50;99.00
27567;DHT22;15006;48.584;9.186;2024-03-02T06:05:40;-0.50;99.50
27567;DHT22;15006;48.584;9.186;2024-03-02T06:08:06;-0.40;99.90
27567;DHT22;15006;48.584;9.186;2024-03-02T06:10:33;-0.30;99.90
27567;DHT22;15006;48.584;9.186;2024-03-02T06:12:58;-0.20;99.90
27567;DHT22;15006;48.584;9.186;2024-03-02T06:15:25;-0.20;99.90
27567;DHT22;15006;48.584;9.186;2024-03-02T06:17:51;-0.10;99.90
27567;DHT22;15006;48.584;9.186;2024-03-02T06:20:17;0.00;99.90
27567;DHT22;15006;48.584;9.186;2024-03-02T06:22:42;0.10;99.90
27567;DHT22;15006;48.584;9.186;2024-03-02T06:25:08;0.10;99.60
27567;DHT22;15006;48.584;9.186;2024-03-02T06:27:34;0.20;99.20
27567;DHT22;15006;48.584;9.186;2024-03-02T06:30:00;0.20;98.90
27567;DHT22;15006;48.584;9.186;2024-03-02T06:32:26;0.30;99.10
27567;DHT22;15006;48.584;9.186;2024-03-02T06:34:52;0.30;99.10
27567;DHT22;15006;48.584;9.186;2024-03-02T06:37:19;0.40;99.30
27567;DHT22;15006;48.584;9.186;2024-03-02T06:39:45;0.40;99.50
27567;DHT22;15006;48.584;9.186;2024-03-02T06:42:11;0.50;99.70
27567;DHT22;15006;48.584;9.186;2024-03-02T06:44:36;0.50;99.50
27567;DHT22;15006;48.584;9.186;2024-03-02T06:47:02;0.60;99.30
27567;DHT22;15006;48.584;9.186;2024-03-02T06:49:28;0.60;99.40
27567;DHT22;15006;48.584;9.186;2024-03-02T06:51:54;0.70;99.70
27567;DHT22;15006;48.584;9.186;2024-03-02T06:54:21;0.80;99.90
27567;DHT22;15006;48.584;9.186;2024-03-02T06:56:47;0.90;99.80
27567;DHT22;15006;48.584;9.186;2024-03-02T06:59:13;1.00;99.60
27567;DHT22;15006;48.584;9.186;2024-03-02T07:01:38;1.00;99.40
27567;DHT22;15006;48.584;9.186;2024-03-02T07:04:04;1.10;99.20
27567;DHT22;15006;48.584;9.186;2024-03-02T07:06:32;1.20;99.10
27567;DHT22;15006;48.584;9.186;2024-03-02T07:08:58;1.30;98.90
27567;DHT22;15006;48.584;9.186;2024-03-02T07:11:24;1.30;98.90
27567;DHT22;15006;48.584;9.186;2024-03-02T07:13:50;1.40;99.10
27567;DHT22;15006;48.584;9.186;2024-03-02T07:16:16;1.50;99.30
27567;DHT22;15006;48.584;9.186;2024-03-02T07:18:54;1.60;99.60
27567;DHT22;15006;48.584;9.186;2024-03-02T07:21:22;1.60;99.80
27567;DHT22;15006;48.584;9.186;2024-03-02T07:23:48;1.70;99.90
27567;DHT22;15006;48.584;9.186;2024-03-02T07:26:15;1.90;99.90
27567;DHT22;15006;48.584;9.186;2024-03-02T07:28:42;2.00;99.90
27567;DHT22;15006;48.584;9.186;2024-03-02T07:31:09;2.10;99.90
27567;DHT22;15006;48.584;9.186;2024-03-02T07:33:35;2.20;99.70
27567;DHT22;15006;48.584;9.186;2024-03-02T07:36:01;2.30;99.60
27567;DHT22;15006;48.584;9.186;2024-03-02T07:38:28;2.50;99.00
27567;DHT22;15006;48.584;9.186;2024-03-02T07:40:55;2.50;98.60
27567;DHT22;15006;48.584;9.186;2024-03-02T07:43:21;2.60;98.10
27567;DHT22;15006;48.584;9.186;2024-03-02T07:45:48;2.70;97.70
27567;DHT22;15006;48.584;9.186;2024-03-02T07:48:14;2.70;97.50
27567;DHT22;15006;48.584;9.186;2024-03-02T07:50:40;2.80;97.20
27567;DHT22;15006;48.584;9.186;2024-03-02T07:53:07;2.80;97.00
27567;DHT22;15006;48.584;9.186;2024-03-02T07:55:35;2.80;96.70
27567;DHT22;15006;48.584;9.186;2024-03-02T07:58:01;2.90;96.50
27567;DHT22;15006;48.584;9.186;2024-03-02T08:00:27;2.90;96.60
27567;DHT22;15006;48.584;9.186;2024-03-02T08:02:53;2.90;96.60
27567;DHT22;15006;48.584;9.186;2024-03-02T08:05:20;3.00;96.50
27567;DHT22;15006;48.584;9.186;2024-03-02T08:07:46;3.00;96.50
27567;DHT22;15006;48.584;9.186;2024-03-02T08:10:13;3.00;96.40
27567;DHT22;15006;48.584;9.186;2024-03-02T08:12:39;3.10;96.40
27567;DHT22;15006;48.584;9.186;2024-03-02T08:15:05;3.10;96.40
27567;DHT22;15006;48.584;9.186;2024-03-02T08:17:32;3.20;96.50
27567;DHT22;15006;48.584;9.186;2024-03-02T08:19:58;3.20;96.60
27567;DHT22;15006;48.584;9.186;2024-03-02T08:22:24;3.40;96.70
27567;DHT22;15006;48.584;9.186;2024-03-02T08:24:53;3.40;96.90
27567;DHT22;15006;48.584;9.186;2024-03-02T08:27:20;3.50;96.90
27567;DHT22;15006;48.584;9.186;2024-03-02T08:29:46;3.60;96.70
27567;DHT22;15006;48.584;9.186;2024-03-02T08:32:12;3.70;96.50
27567;DHT22;15006;48.584;9.186;2024-03-02T08:34:38;3.80;96.50
27567;DHT22;15006;48.584;9.186;2024-03-02T08:37:04;4.00;96.50
27567;DHT22;15006;48.584;9.186;2024-03-02T08:39:30;4.10;96.40
27567;DHT22;15006;48.584;9.186;2024-03-02T08:41:56;4.20;95.90
27567;DHT22;15006;48.584;9.186;2024-03-02T08:44:22;4.30;95.40
27567;DHT22;15006;48.584;9.186;2024-03-02T08:46:48;4.40;95.20
27567;DHT22;15006;48.584;9.186;2024-03-02T08:49:14;4.60;94.80
27567;DHT22;15006;48.584;9.186;2024-03-02T08:51:40;4.70;94.60
27567;DHT22;15006;48.584;9.186;2024-03-02T08:54:06;4.80;94.50
27567;DHT22;15006;48.584;9.186;2024-03-02T08:56:32;4.90;94.60
27567;DHT22;15006;48.584;9.186;2024-03-02T08:58:58;5.00;94.20
27567;DHT22;15006;48.584;9.186;2024-03-02T09:01:24;5.10;93.50
27567;DHT22;15006;48.584;9.186;2024-03-02T09:03:50;5.20;93.60
27567;DHT22;15006;48.584;9.186;2024-03-02T09:06:16;5.30;93.30
27567;DHT22;15006;48.584;9.186;2024-03-02T09:08:43;5.40;92.50
27567;DHT22;15006;48.584;9.186;2024-03-02T09:11:10;5.50;92.30
27567;DHT22;15006;48.584;9.186;2024-03-02T09:13:37;5.60;92.40
27567;DHT22;15006;48.584;9.186;2024-03-02T09:16:04;5.60;92.00
27567;DHT22;15006;48.584;9.186;2024-03-02T09:18:31;5.70;92.10
27567;DHT22;15006;48.584;9.186;2024-03-02T09:20:57;5.80;91.60
27567;DHT22;15006;48.584;9.186;2024-03-02T09:23:23;5.80;91.30
27567;DHT22;15006;48.584;9.186;2024-03-02T09:25:49;5.90;91.30
27567;DHT22;15006;48.584;9.186;2024-03-02T09:28:18;6.00;91.40
27567;DHT22;15006;48.584;9.186;2024-03-02T09:30:44;6.10;91.50
27567;DHT22;15006;48.584;9.186;2024-03-02T09:33:09;6.20;91.30
27567;DHT22;15006;48.584;9.186;2024-03-02T09:35:35;6.30;90.80
27567;DHT22;15006;48.584;9.186;2024-03-02T09:38:01;6.30;90.80
27567;DHT22;15006;48.584;9.186;2024-03-02T09:40:29;6.50;90.90
27567;DHT22;15006;48.584;9.186;2024-03-02T09:42:55;6.50;90.50
27567;DHT22;15006;48.584;9.186;2024-03-02T09:45:23;6.70;89.70
27567;DHT22;15006;48.584;9.186;2024-03-02T09:47:51;6.80;88.70
27567;DHT22;15006;48.584;9.186;2024-03-02T09:50:17;7.00;87.50
27567;DHT22;15006;48.584;9.186;2024-03-02T09:52:43;7.10;86.80
27567;DHT22;15006;48.584;9.186;2024-03-02T09:55:09;7.20;86.90
27567;DHT22;15006;48.584;9.186;2024-03-02T09:57:37;7.30;87.10
27567;DHT22;15006;48.584;9.186;2024-03-02T10:00:04;7.40;85.70
27567;DHT22;15006;48.584;9.186;2024-03-02T10:02:30;7.50;84.70
27567;DHT22;15006;48.584;9.186;2024-03-02T10:04:56;7.60;85.00
27567;DHT22;15006;48.584;9.186;2024-03-02T10:07:22;7.70;84.60
27567;DHT22;15006;48.584;9.186;2024-03-02T10:09:48;7.90;84.60
27567;DHT22;15006;48.584;9.186;2024-03-02T10:12:16;8.10;84.40
27567;DHT22;15006;48.584;9.186;2024-03-02T10:14:43;8.10;84.40
27567;DHT22;15006;48.584;9.186;2024-03-02T10:17:11;8.30;83.90
27567;DHT22;15006;48.584;9.186;2024-03-02T10:19:38;8.50;83.10
27567;DHT22;15006;48.584;9.186;2024-03-02T10:22:06;8.60;83.00
27567;DHT22;15006;48.584;9.186;2024-03-02T10:24:43;8.80;82.00
27567;DHT22;15006;48.584;9.186;2024-03-02T10:27:15;8.80;80.40
27567;DHT22;15006;48.584;9.186;2024-03-02T10:29:45;9.00;81.10
27567;DHT22;15006;48.584;9.186;2024-03-02T10:32:12;9.10;81.60
27567;DHT22;15006;48.584;9.186;2024-03-02T10:34:40;9.30;81.00
27567;DHT22;15006;48.584;9.186;2024-03-02T10:37:08;9.40;80.40
27567;DHT22;15006;48.584;9.186;2024-03-02T10:39:35;9.60;80.40
27567;DHT22;15006;48.584;9.186;2024-03-02T10:42:05;9.70;81.10
27567;DHT22;15006;48.584;9.186;2024-03-02T10:44:32;10.00;82.10
27567;DHT22;15006;48.584;9.186;2024-03-02T10:47:03;10.40;82.20
27567;DHT22;15006;48.584;9.186;2024-03-02T10:49:30;10.90;86.70
27567;DHT22;15006;48.584;9.186;2024-03-02T10:52:00;11.60;84.80
27567;DHT22;15006;48.584;9.186;2024-03-02T10:54:27;12.20;82.70
27567;DHT22;15006;48.584;9.186;2024-03-02T10:57:01;12.90;84.10
27567;DHT22;15006;48.584;9.186;2024-03-02T10:59:36;13.60;78.20
27567;DHT22;15006;48.584;9.186;2024-03-02T11:02:06;14.30;76.60
27567;DHT22;15006;48.584;9.186;2024-03-02T11:04:34;15.10;76.40
27567;DHT22;15006;48.584;9.186;2024-03-02T11:07:08;15.70;75.00
27567;DHT22;15006;48.584;9.186;2024-03-02T11:09:45;16.40;66.90
27567;DHT22;15006;48.584;9.186;2024-03-02T11:15:01;17.60;62.50
27567;DHT22;15006;48.584;9.186;2024-03-02T11:17:30;18.10;64.70
27567;DHT22;15006;48.584;9.186;2024-03-02T11:19:57;18.70;63.60
27567;DHT22;15006;48.584;9.186;2024-03-02T11:22:24;19.20;61.30
27567;DHT22;15006;48.584;9.186;2024-03-02T11:24:50;19.70;59.40
27567;DHT22;15006;48.584;9.186;2024-03-02T11:33:23;21.20;53.00
27567;DHT22;15006;48.584;9.186;2024-03-02T11:35:50;21.60;52.80
27567;DHT22;15006;48.584;9.186;2024-03-02T11:38:16;22.00;53.40
27567;DHT22;15006;48.584;9.186;2024-03-02T11:40:43;22.40;51.00
27567;DHT22;15006;48.584;9.186;2024-03-02T11:43:09;22.70;50.30
27567;DHT22;15006;48.584;9.186;2024-03-02T11:45:37;23.00;48.50
27567;DHT22;15006;48.584;9.186;2024-03-02T11:48:09;23.30;46.90
27567;DHT22;15006;48.584;9.186;2024-03-02T11:50:49;23.40;45.60
27567;DHT22;15006;48.584;9.186;2024-03-02T11:53:16;23.50;42.90
27567;DHT22;15006;48.584;9.186;2024-03-02T11:55:44;23.60;43.60
27567;DHT22;15006;48.584;9.186;2024-03-02T11:58:15;23.60;43.40
27567;DHT22;15006;48.584;9.186;2024-03-02T12:00:58;23.60;42.90
27567;DHT22;15006;48.584;9.186;2024-03-02T12:03:25;23.60;42.00
27567;DHT22;15006;48.584;9.186;2024-03-02T12:05:55;23.60;42.30
27567;DHT22;15006;48.584;9.186;2024-03-02T12:08:21;23.60;41.10
27567;DHT22;15006;48.584;9.186;2024-03-02T12:11:01;23.60;42.60
27567;DHT22;15006;48.584;9.186;2024-03-02T12:13:28;23.50;40.60
27567;DHT22;15006;48.584;9.186;2024-03-02T12:15:55;23.60;42.30
27567;DHT22;15006;48.584;9.186;2024-03-02T12:18:25;23.60;42.00
27567;DHT22;15006;48.584;9.186;2024-03-02T12:20:52;23.80;42.00
27567;DHT22;15006;48.584;9.186;2024-03-02T12:23:18;23.90;41.90
27567;DHT22;15006;48.584;9.186;2024-03-02T12:25:45;24.10;42.00
27567;DHT22;15006;48.584;9.186;2024-03-02T12:28:11;24.30;41.60
27567;DHT22;15006;48.584;9.186;2024-03-02T12:30:37;24.60;40.50
27567;DHT22;15006;48.584;9.186;2024-03-02T12:33:03;24.80;40.40
27567;DHT22;15006;48.584;9.186;2024-03-02T12:35:30;25.10;39.60
27567;DHT22;15006;48.584;9.186;2024-03-02T12:37:57;25.40;38.30
27567;DHT22;15006;48.584;9.186;2024-03-02T12:40:24;25.60;35.90
27567;DHT22;15006;48.584;9.186;2024-03-02T12:42:50;25.70;34.70
27567;DHT22;15006;48.584;9.186;2024-03-02T12:45:17;25.60;33.60
27567;DHT22;15006;48.584;9.186;2024-03-02T12:47:49;25.60;34.50
27567;DHT22;15006;48.584;9.186;2024-03-02T12:50:18;25.70;34.80
27567;DHT22;15006;48.584;9.186;2024-03-02T12:52:51;25.90;33.80
27567;DHT22;15006;48.584;9.186;2024-03-02T12:55:20;26.00;33.80
27567;DHT22;15006;48.584;9.186;2024-03-02T12:57:52;26.10;35.20
27567;DHT22;15006;48.584;9.186;2024-03-02T13:00:19;26.30;34.30
27567;DHT22;15006;48.584;9.186;2024-03-02T13:02:47;26.50;34.20
27567;DHT22;15006;48.584;9.186;2024-03-02T13:05:14;26.60;33.90
27567;DHT22;15006;48.584;9.186;2024-03-02T13:07:40;26.90;33.10
27567;DHT22;15006;48.584;9.186;2024-03-02T13:10:10;27.00;33.20
27567;DHT22;15006;48.584;9.186;2024-03-02T13:12:38;27.20;33.20
27567;DHT22;15006;48.584;9.186;2024-03-02T13:15:04;27.30;32.40
27567;DHT22;15006;48.584;9.186;2024-03-02T13:17:31;27.50;31.50
27567;DHT22;15006;48.584;9.186;2024-03-02T13:19:59;27.60;30.60
27567;DHT22;15006;48.584;9.186;2024-03-02T13:22:26;27.60;30.00
27567;DHT22;15006;48.584;9.186;2024-03-02T13:24:53;27.60;30.00
27567;DHT22;15006;48.584;9.186;2024-03-02T13:27:23;27.60;30.10
27567;DHT22;15006;48.584;9.186;2024-03-02T13:29:49;27.60;30.30
27567;DHT22;15006;48.584;9.186;2024-03-02T13:32:16;27.70;30.80
27567;DHT22;15006;48.584;9.186;2024-03-02T13:34:43;27.90;30.60
27567;DHT22;15006;48.584;9.186;2024-03-02T13:37:09;28.00;29.80
27567;DHT22;15006;48.584;9.186;2024-03-02T13:39:35;28.20;29.70
27567;DHT22;15006;48.584;9.186;2024-03-02T13:42:11;28.30;29.60
27567;DHT22;15006;48.584;9.186;2024-03-02T13:44:40;28.40;28.10
27567;DHT22;15006;48.584;9.186;2024-03-02T13:47:07;28.50;28.20
27567;DHT22;15006;48.584;9.186;2024-03-02T13:49:33;28.40;27.10
27567;DHT22;15006;48.584;9.186;2024-03-02T13:52:03;28.30;27.50
27567;DHT22;15006;48.584;9.186;2024-03-02T13:54:39;28.10;27.70
27567;DHT22;15006;48.584;9.186;2024-03-02T13:57:07;28.00;27.70
27567;DHT22;15006;48.584;9.186;2024-03-02T13:59:35;27.80;27.30
27567;DHT22;15006;48.584;9.186;2024-03-02T14:02:02;27.60;27.80
27567;DHT22;15006;48.584;9.186;2024-03-02T14:04:35;27.40;26.90
27567;DHT22;15006;48.584;9.186;2024-03-02T14:07:02;27.00;27.20
27567;DHT22;15006;48.584;9.186;2024-03-02T14:09:28;26.60;27.40
27567;DHT22;15006;48.584;9.186;2024-03-02T14:11:55;26.10;27.10
27567;DHT22;15006;48.584;9.186;2024-03-02T14:14:21;25.60;27.90
27567;DHT22;15006;48.584;9.186;2024-03-02T14:16:48;25.20;28.90
27567;DHT22;15006;48.584;9.186;2024-03-02T14:19:14;24.90;29.00
27567;DHT22;15006;48.584;9.186;2024-03-02T14:21:40;24.60;28.90
27567;DHT22;15006;48.584;9.186;2024-03-02T14:24:06;24.30;29.40
27567;DHT22;15006;48.584;9.186;2024-03-02T14:26:33;24.10;29.60
27567;DHT22;15006;48.584;9.186;2024-03-02T14:28:59;23.90;29.70
27567;DHT22;15006;48.584;9.186;2024-03-02T14:31:28;23.70;29.70
27567;DHT22;15006;48.584;9.186;2024-03-02T14:33:55;23.50;30.00
27567;DHT22;15006;48.584;9.186;2024-03-02T14:36:21;23.30;31.20
27567;DHT22;15006;48.584;9.186;2024-03-02T14:38:47;23.20;30.90
27567;DHT22;15006;48.584;9.186;2024-03-02T14:41:14;23.00;31.30
27567;DHT22;15006;48.584;9.186;2024-03-02T14:43:40;23.00;30.60
27567;DHT22;15006;48.584;9.186;2024-03-02T14:46:06;23.00;30.40
27567;DHT22;15006;48.584;9.186;2024-03-02T14:48:38;22.90;30.70
27567;DHT22;15006;48.584;9.186;2024-03-02T14:51:04;22.90;31.10
27567;DHT22;15006;48.584;9.186;2024-03-02T14:53:30;22.90;31.80
27567;DHT22;15006;48.584;9.186;2024-03-02T14:55:57;23.00;32.40
27567;DHT22;15006;48.584;9.186;2024-03-02T14:58:23;23.10;32.00
27567;DHT22;15006;48.584;9.186;2024-03-02T15:00:49;23.30;31.50
27567;DHT22;15006;48.584;9.186;2024-03-02T15:03:15;23.40;30.60
27567;DHT22;15006;48.584;9.186;2024-03-02T15:05:42;23.60;30.30
27567;DHT22;15006;48.584;9.186;2024-03-02T15:08:08;23.70;30.30
27567;DHT22;15006;48.584;9.186;2024-03-02T15:10:34;23.70;29.60
27567;DHT22;15006;48.584;9.186;2024-03-02T15:13:00;23.60;29.20
27567;DHT22;15006;48.584;9.186;2024-03-02T15:15:27;23.30;29.10
27567;DHT22;15006;48.584;9.186;2024-03-02T15:17:53;22.90;29.10
27567;DHT22;15006;48.584;9.186;2024-03-02T15:20:18;22.40;28.80
27567;DHT22;15006;48.584;9.186;2024-03-02T15:22:47;21.90;29.50
27567;DHT22;15006;48.584;9.186;2024-03-02T15:25:13;21.30;29.90
27567;DHT22;15006;48.584;9.186;2024-03-02T15:27:42;20.70;30.40
27567;DHT22;15006;48.584;9.186;2024-03-02T15:30:08;20.10;30.70
27567;DHT22;15006;48.584;9.186;2024-03-02T15:32:34;19.50;31.20
27567;DHT22;15006;48.584;9.186;2024-03-02T15:35:02;19.00;31.90
27567;DHT22;15006;48.584;9.186;2024-03-02T15:37:29;18.40;32.30
27567;DHT22;15006;48.584;9.186;2024-03-02T15:39:55;18.00;32.90
27567;DHT22;15006;48.584;9.186;2024-03-02T15:42:21;17.50;33.60
27567;DHT22;15006;48.584;9.186;2024-03-02T15:44:49;17.10;34.00
27567;DHT22;15006;48.584;9.186;2024-03-02T15:47:15;16.70;34.60
27567;DHT22;15006;48.584;9.186;2024-03-02T15:49:41;16.30;34.90